createdAt,value
2018-07-23T00:01:22.146Z,60.86
2018-07-23T00:03:52.593Z,60.83
2018-07-23T00:06:23.491Z,60.41
2018-07-23T00:08:53.181Z,60.77
2018-07-23T00:11:23.296Z,60.88
2018-07-23T00:13:52.838Z,60.83
2018-07-23T00:33:44.706Z,61.29
2018-07-23T00:36:15.165Z,61.76
2018-07-23T00:38:44.741Z,61.56
2018-07-23T00:58:37.409Z,61.68
2018-07-23T01:01:06.938Z,61.99
2018-07-23T01:03:36.695Z,61.81
2018-07-23T01:06:06.490Z,61.80
2018-07-23T01:08:36.569Z,61.57
2018-07-23T01:11:06.578Z,61.47
2018-07-23T01:13:36.397Z,60.92
2018-07-23T01:16:06.829Z,60.93
2018-07-23T01:18:36.539Z,61.41
2018-07-23T01:21:06.412Z,61.32
2018-07-23T01:23:35.919Z,60.95
2018-07-23T01:26:05.533Z,61.55
2018-07-23T01:28:36.101Z,61.01
2018-07-23T01:31:05.443Z,60.98
2018-07-23T01:33:35.164Z,61.51
2018-07-23T01:36:04.639Z,61.70
2018-07-23T01:38:34.309Z,61.88
2018-07-23T01:41:04.085Z,61.97
2018-07-23T01:43:33.680Z,62.17
2018-07-23T01:46:04.293Z,62.59
2018-07-23T02:05:56.376Z,63.64
2018-07-23T02:08:26.003Z,64.03
2018-07-23T02:10:55.594Z,64.01
2018-07-23T02:13:25.602Z,64.31
2018-07-23T02:15:55.340Z,64.35
2018-07-23T02:18:25.035Z,64.47
2018-07-23T02:20:57.072Z,65.17
2018-07-23T02:23:26.861Z,65.62
2018-07-23T02:25:56.557Z,65.54
2018-07-23T02:28:27.540Z,65.89
2018-07-23T02:30:57.231Z,65.76
2018-07-23T02:33:26.722Z,65.99
2018-07-23T02:35:56.456Z,66.22
2018-07-23T02:38:26.364Z,66.05
2018-07-23T02:40:56.321Z,66.50
2018-07-23T02:43:26.487Z,66.40
2018-07-23T02:45:56.091Z,66.59
2018-07-23T02:48:25.589Z,66.87
2018-07-23T02:50:55.557Z,66.69
2018-07-23T02:53:26.124Z,66.53
2018-07-23T02:55:56.168Z,66.74
2018-07-23T02:58:25.703Z,67.00
2018-07-23T03:00:56.158Z,67.16
2018-07-23T03:03:26.015Z,66.46
2018-07-23T03:05:55.725Z,66.55
2018-07-23T03:08:25.312Z,67.00
2018-07-23T03:10:54.840Z,67.13
2018-07-23T03:13:24.377Z,67.08
2018-07-23T03:15:54.834Z,66.96
2018-07-23T03:18:25.410Z,67.15
2018-07-23T03:20:55.982Z,67.60
2018-07-23T03:23:28.237Z,67.48
2018-07-23T03:43:19.570Z,68.60
2018-07-23T03:45:48.952Z,68.65
2018-07-23T04:05:40.947Z,68.40
2018-07-23T04:08:10.576Z,68.71
2018-07-23T04:10:39.916Z,68.60
2018-07-23T04:13:09.412Z,68.71
2018-07-23T04:15:38.760Z,68.75
2018-07-23T04:18:08.078Z,68.88
2018-07-23T04:20:37.714Z,68.77
2018-07-23T04:23:08.052Z,68.70
2018-07-23T04:25:37.405Z,68.45
2018-07-23T04:28:06.781Z,68.30
2018-07-23T04:30:36.235Z,67.92
2018-07-23T04:33:05.757Z,67.86
2018-07-23T04:35:35.056Z,67.44
2018-07-23T04:38:04.750Z,67.19
2018-07-23T04:40:34.079Z,67.56
2018-07-23T04:43:03.557Z,67.62
2018-07-23T04:45:33.391Z,66.99
2018-07-23T04:48:02.910Z,67.10
2018-07-23T04:50:32.219Z,67.10
2018-07-23T04:53:02.649Z,65.66
2018-07-23T04:55:32.057Z,65.49
2018-07-23T05:32:46.524Z,63.05
2018-07-23T05:35:16.275Z,62.58
2018-07-23T05:37:45.965Z,62.96
2018-07-23T05:40:15.645Z,62.45
2018-07-23T06:00:07.649Z,62.14
2018-07-23T06:02:37.442Z,62.33
2018-07-23T06:05:06.894Z,62.75
2018-07-23T06:07:36.560Z,61.54
2018-07-23T06:10:06.354Z,62.46
2018-07-23T06:29:58.685Z,60.99
2018-07-23T06:32:29.068Z,61.54
2018-07-23T06:34:58.684Z,60.95
2018-07-23T06:37:28.302Z,60.75
2018-07-23T06:39:57.969Z,61.31
2018-07-23T06:42:27.489Z,61.42
2018-07-23T06:44:57.037Z,60.91
2018-07-23T06:47:26.983Z,60.60
2018-07-23T06:49:56.926Z,57.54
2018-07-23T06:52:26.753Z,55.47
2018-07-23T06:54:56.644Z,54.65
2018-07-23T06:57:25.996Z,55.20
2018-07-23T06:59:55.655Z,55.40
2018-07-23T07:19:48.600Z,53.24
2018-07-23T07:39:40.724Z,50.85
2018-07-23T07:42:10.743Z,51.94
2018-07-23T07:44:40.408Z,52.15
2018-07-23T07:47:09.997Z,52.26
2018-07-23T07:49:40.065Z,49.83
2018-07-23T08:09:31.762Z,53.04
2018-07-23T08:12:01.718Z,51.78
2018-07-23T08:31:53.682Z,49.85
2018-07-23T08:51:45.132Z,47.26
2018-07-23T08:54:14.707Z,46.71
2018-07-23T08:56:44.365Z,47.13
2018-07-23T09:33:59.581Z,43.74
2018-07-23T09:36:29.057Z,44.23
2018-07-23T09:38:58.780Z,43.78
2018-07-23T09:58:51.624Z,39.18
2018-07-23T10:01:21.274Z,37.57
2018-07-23T10:03:51.048Z,39.29
2018-07-23T10:23:43.077Z,45.01
2018-07-23T10:26:12.849Z,46.54
2018-07-23T10:28:42.700Z,46.30
2018-07-23T10:31:12.386Z,46.85
2018-07-23T10:33:41.747Z,48.38
2018-07-23T10:36:11.388Z,48.28
2018-07-23T10:38:41.108Z,49.17
2018-07-23T10:41:10.917Z,50.44
2018-07-23T10:43:40.672Z,51.87
2018-07-23T11:03:33.261Z,57.47
2018-07-23T11:06:02.863Z,57.62
2018-07-23T11:08:32.669Z,56.53
2018-07-23T11:11:02.349Z,56.39
2018-07-23T11:13:31.901Z,56.65
2018-07-23T11:16:01.522Z,56.67
2018-07-23T11:18:31.327Z,57.24
2018-07-23T11:21:00.839Z,58.29
2018-07-23T11:23:30.362Z,59.41
2018-07-23T11:26:00.390Z,60.27
2018-07-23T11:28:30.285Z,61.16
2018-07-23T11:31:00.025Z,60.35
2018-07-23T11:33:29.740Z,60.47
2018-07-23T11:35:59.315Z,60.39
2018-07-23T11:38:28.872Z,61.44
2018-07-23T11:40:59.054Z,61.21
2018-07-23T11:43:29.443Z,61.75
2018-07-23T12:03:21.326Z,57.80
2018-07-23T12:05:50.754Z,56.38
2018-07-23T12:25:47.508Z,56.32
2018-07-23T12:45:41.249Z,50.38
2018-07-23T13:05:39.460Z,42.95
2018-07-23T13:08:10.564Z,44.37
2018-07-23T13:10:42.871Z,43.75
2018-07-23T13:13:13.797Z,44.35
2018-07-23T13:15:43.673Z,45.44
2018-07-23T13:18:16.922Z,43.93
2018-07-23T13:20:49.045Z,44.19
2018-07-23T13:23:21.024Z,45.44
2018-07-23T13:25:55.217Z,45.05
2018-07-23T13:31:08.709Z,48.02
2018-07-23T13:33:42.667Z,50.00
2018-07-23T13:53:52.534Z,54.33
2018-07-23T13:56:26.377Z,54.29
2018-07-23T13:59:03.460Z,54.04
2018-07-23T14:01:34.132Z,55.76
2018-07-23T14:04:05.739Z,57.64
2018-07-23T14:06:35.501Z,58.21
2018-07-23T14:09:18.879Z,57.83
2018-07-23T14:11:53.654Z,58.02
2018-07-23T14:14:47.097Z,56.92
2018-07-23T14:34:44.645Z,60.95
2018-07-23T14:37:17.010Z,60.75
2018-07-23T14:39:49.951Z,61.55
2018-07-23T14:42:25.465Z,61.85
2018-07-23T15:02:17.445Z,58.09
2018-07-23T15:04:48.036Z,58.30
2018-07-23T15:07:22.329Z,59.88
2018-07-23T15:09:54.568Z,60.30
2018-07-23T15:12:24.337Z,61.10
2018-07-23T15:32:18.223Z,63.31
2018-07-23T15:34:47.808Z,62.96
2018-07-23T15:37:21.135Z,62.73
2018-07-23T15:39:50.727Z,63.13
2018-07-23T15:42:23.669Z,64.35
2018-07-23T15:44:53.988Z,65.37
2018-07-23T15:47:24.991Z,64.47
2018-07-23T15:49:54.394Z,65.02
2018-07-23T15:52:24.032Z,64.99
2018-07-23T15:54:53.793Z,64.87
2018-07-23T15:57:30.270Z,63.32
2018-07-23T16:00:01.202Z,63.54
2018-07-23T16:02:32.171Z,64.05
2018-07-23T16:05:01.568Z,63.95
2018-07-23T16:07:31.050Z,64.26
2018-07-23T16:10:01.099Z,64.22
2018-07-23T16:12:30.541Z,64.91
2018-07-23T16:15:00.190Z,66.08
2018-07-23T16:17:30.541Z,67.05
2018-07-23T16:20:00.746Z,66.60
2018-07-23T16:22:30.318Z,66.32
2018-07-23T16:25:03.306Z,65.90
2018-07-23T16:27:32.826Z,65.71
2018-07-23T16:30:02.352Z,65.20
2018-07-23T16:32:32.429Z,65.74
2018-07-23T16:35:02.598Z,65.26
2018-07-23T16:37:32.257Z,65.33
2018-07-23T16:40:02.147Z,65.79
2018-07-23T16:42:31.722Z,65.83
2018-07-23T16:45:01.693Z,65.85
2018-07-23T16:47:32.283Z,64.82
2018-07-23T16:50:06.729Z,65.01
2018-07-23T16:52:38.787Z,66.00
2018-07-23T16:55:09.561Z,66.38
2018-07-23T16:57:40.530Z,66.68
2018-07-23T17:37:49.776Z,64.46
2018-07-23T17:40:19.543Z,64.37
2018-07-23T17:42:49.510Z,65.30
2018-07-23T17:45:19.910Z,65.39
2018-07-23T17:47:49.407Z,65.60
2018-07-23T17:50:19.040Z,65.21
2018-07-23T17:52:54.320Z,65.09
2018-07-23T18:12:45.386Z,65.86
2018-07-23T18:15:15.187Z,66.71
2018-07-23T18:17:44.760Z,67.36
2018-07-23T18:37:36.486Z,71.69
2018-07-23T18:57:27.568Z,72.02
2018-07-23T18:59:57.714Z,72.44
2018-07-23T19:02:31.891Z,72.99
2018-07-23T19:05:02.163Z,72.67
2018-07-23T19:07:32.549Z,72.63
2018-07-23T19:10:04.075Z,72.40
2018-07-23T19:12:33.923Z,71.71
2018-07-23T19:32:25.550Z,71.92
2018-07-23T19:34:55.050Z,72.25
2018-07-23T19:37:24.654Z,72.17
2018-07-23T19:39:54.309Z,72.24
2018-07-23T19:42:23.740Z,73.44
2018-07-23T19:44:53.479Z,73.74
2018-07-23T19:47:23.602Z,73.93
2018-07-23T19:49:52.980Z,74.03
2018-07-23T20:09:45.438Z,75.97
2018-07-23T20:12:14.972Z,76.23
2018-07-23T20:14:44.531Z,75.74
2018-07-23T20:17:14.159Z,75.20
2018-07-23T20:19:43.569Z,74.79
2018-07-23T20:22:13.002Z,74.49
2018-07-23T20:24:42.528Z,73.89
2018-07-23T20:27:12.040Z,74.16
2018-07-23T20:29:41.588Z,74.77
2018-07-23T20:32:12.801Z,75.05
2018-07-23T20:34:43.248Z,75.09
2018-07-23T20:37:12.620Z,75.12
2018-07-23T20:39:42.390Z,75.25
2018-07-23T20:42:15.558Z,75.36
2018-07-23T20:44:45.795Z,75.46
2018-07-23T20:47:16.593Z,75.46
2018-07-23T20:49:46.010Z,75.68
2018-07-23T20:52:17.962Z,75.61
2018-07-23T20:54:47.683Z,75.72
2018-07-23T20:57:17.028Z,76.07
2018-07-23T20:59:47.118Z,76.28
2018-07-23T21:02:16.429Z,76.44
2018-07-23T21:04:45.832Z,76.50
2018-07-23T21:07:15.556Z,76.19
2018-07-23T21:09:45.669Z,76.01
2018-07-23T21:12:16.135Z,76.36
2018-07-23T21:14:46.874Z,75.94
2018-07-23T21:17:17.621Z,75.70
2018-07-23T21:19:47.376Z,75.80
2018-07-23T21:22:16.820Z,75.54
2018-07-23T21:24:48.015Z,75.51
2018-07-23T21:27:26.842Z,75.40
2018-07-23T21:30:01.074Z,75.42
2018-07-23T21:32:30.977Z,75.64
2018-07-23T21:35:00.339Z,75.41
2018-07-23T21:37:30.102Z,75.64
2018-07-23T21:40:01.267Z,76.07
2018-07-23T21:42:31.127Z,75.86
2018-07-23T21:45:00.730Z,75.86
2018-07-23T21:47:30.266Z,76.14
2018-07-23T21:50:01.011Z,75.94
2018-07-23T21:52:30.363Z,75.90
2018-07-23T21:55:00.866Z,76.41
2018-07-23T21:57:30.559Z,76.73
2018-07-23T22:00:00.375Z,76.61
2018-07-23T22:02:30.130Z,76.24
2018-07-23T22:05:00.942Z,76.11
2018-07-23T22:07:31.708Z,76.36
2018-07-23T22:10:02.321Z,76.77
2018-07-23T22:12:31.621Z,76.58
2018-07-23T22:15:02.195Z,76.96
2018-07-23T22:17:32.159Z,77.03
2018-07-23T22:20:01.670Z,76.74
2018-07-23T22:22:31.802Z,76.58
2018-07-23T22:25:02.886Z,77.01
2018-07-23T22:27:32.823Z,77.33
2018-07-23T22:30:02.616Z,77.17
2018-07-23T22:32:32.967Z,77.12
2018-07-23T22:35:02.356Z,77.40
2018-07-23T22:37:33.068Z,77.37
2018-07-23T22:40:02.868Z,77.15
2018-07-23T22:42:35.334Z,77.58
2018-07-23T22:45:05.467Z,77.14
2018-07-23T22:47:35.271Z,77.08
2018-07-23T22:50:05.742Z,76.55
2018-07-23T22:52:35.140Z,77.10
2018-07-23T22:55:04.862Z,76.50
2018-07-23T22:57:34.911Z,76.13
2018-07-23T23:00:05.092Z,76.52
2018-07-23T23:02:34.632Z,76.36
2018-07-23T23:05:04.301Z,76.61
2018-07-23T23:07:33.901Z,76.24
2018-07-23T23:10:03.322Z,76.59
2018-07-23T23:12:32.885Z,76.90
2018-07-23T23:15:02.274Z,76.72
2018-07-23T23:17:33.089Z,76.82
2018-07-23T23:20:03.022Z,77.33
2018-07-23T23:22:34.384Z,77.59
2018-07-23T23:25:04.224Z,77.31
2018-07-23T23:27:33.718Z,77.56
2018-07-23T23:30:04.422Z,76.79
2018-07-23T23:32:35.030Z,76.68
2018-07-23T23:35:04.370Z,76.42
2018-07-23T23:37:34.918Z,76.30
2018-07-23T23:40:04.772Z,76.10
2018-07-23T23:42:35.246Z,76.25
2018-07-23T23:45:05.132Z,76.39
2018-07-23T23:47:36.547Z,76.62
2018-07-23T23:50:07.316Z,76.75
2018-07-23T23:52:37.438Z,76.77
2018-07-23T23:55:06.883Z,76.63
2018-07-23T23:57:37.038Z,76.48
